sensor_id;sensor_type;location;lat;lon;timestamp;temperature;humidity
5346;DHT22;2695;49.444;11.054;2022-11-20T00:01:33;2.40;99.90
5346;DHT22;2695;49.444;11.054;2022-11-20T00:04:01;2.40;99.90
5346;DHT22;2695;49.444;11.054;2022-11-20T00:06:29;2.40;99.90
5346;DHT22;2695;49.444;11.054;2022-11-20T00:08:59;2.50;99.90
5346;DHT22;2695;49.444;11.054;2022-11-20T00:11:29;2.50;99.90
5346;DHT22;2695;49.444;11.054;2022-11-20T00:14:00;2.40;99.90
5346;DHT22;2695;49.444;11.054;2022-11-20T00:16:30;2.50;99.90
5346;DHT22;2695;49.444;11.054;2022-11-20T00:18:59;2.50;99.90
5346;DHT22;2695;49.444;11.054;2022-11-20T00:21:28;2.50;99.90
5346;DHT22;2695;49.444;11.054;2022-11-20T00:23:57;2.60;99.90
5346;DHT22;2695;49.444;11.054;2022-11-20T00:26:27;2.60;99.90
5346;DHT22;2695;49.444;11.054;2022-11-20T00:28:58;2.50;99.90
5346;DHT22;2695;49.444;11.054;2022-11-20T00:31:30;2.50;99.90
5346;DHT22;2695;49.444;11.054;2022-11-20T00:33:59;2.50;99.90
5346;DHT22;2695;49.444;11.054;2022-11-20T00:36:29;2.40;99.90
5346;DHT22;2695;49.444;11.054;2022-11-20T00:38:59;2.40;99.90
5346;DHT22;2695;49.444;11.054;2022-11-20T00:41:28;2.40;99.90
5346;DHT22;2695;49.444;11.054;2022-11-20T00:43:59;2.40;99.90
5346;DHT22;2695;49.444;11.054;2022-11-20T00:46:29;2.40;99.90
5346;DHT22;2695;49.444;11.054;2022-11-20T00:48:59;2.50;99.90
5346;DHT22;2695;49.444;11.054;2022-11-20T00:51:29;2.40;99.90
5346;DHT22;2695;49.444;11.054;2022-11-20T00:53:58;2.40;99.90
5346;DHT22;2695;49.444;11.054;2022-11-20T00:56:31;2.40;99.90
5346;DHT22;2695;49.444;11.054;2022-11-20T00:59:01;2.40;99.90
5346;DHT22;2695;49.444;11.054;2022-11-20T01:01:32;2.40;99.90
5346;DHT22;2695;49.444;11.054;2022-11-20T01:04:01;2.50;99.90
5346;DHT22;2695;49.444;11.054;2022-11-20T01:06:31;2.50;99.90
5346;DHT22;2695;49.444;11.054;2022-11-20T01:09:02;2.50;99.90
5346;DHT22;2695;49.444;11.054;2022-11-20T01:11:38;2.60;99.90
5346;DHT22;2695;49.444;11.054;2022-11-20T01:14:11;2.50;99.90
5346;DHT22;2695;49.444;11.054;2022-11-20T01:16:41;2.60;99.90
5346;DHT22;2695;49.444;11.054;2022-11-20T01:19:11;2.60;99.90
5346;DHT22;2695;49.444;11.054;2022-11-20T01:21:45;2.50;99.90
5346;DHT22;2695;49.444;11.054;2022-11-20T01:24:17;2.50;99.90
5346;DHT22;2695;49.444;11.054;2022-11-20T01:26:50;2.60;99.90
5346;DHT22;2695;49.444;11.054;2022-11-20T01:29:22;2.60;99.90
5346;DHT22;2695;49.444;11.054;2022-11-20T01:31:52;2.60;99.90
5346;DHT22;2695;49.444;11.054;2022-11-20T01:34:22;2.70;99.90
5346;DHT22;2695;49.444;11.054;2022-11-20T01:36:52;2.60;99.90
5346;DHT22;2695;49.444;11.054;2022-11-20T01:39:22;2.60;99.90
5346;DHT22;2695;49.444;11.054;2022-11-20T01:41:52;2.60;99.90
5346;DHT22;2695;49.444;11.054;2022-11-20T01:44:50;2.50;99.90
5346;DHT22;2695;49.444;11.054;2022-11-20T01:47:24;2.50;99.90
5346;DHT22;2695;49.444;11.054;2022-11-20T01:49:56;2.50;99.90
5346;DHT22;2695;49.444;11.054;2022-11-20T01:52:31;2.70;99.90
5346;DHT22;2695;49.444;11.054;2022-11-20T01:55:04;2.50;99.90
5346;DHT22;2695;49.444;11.054;2022-11-20T01:57:36;2.60;99.90
5346;DHT22;2695;49.444;11.054;2022-11-20T02:00:09;2.60;99.90
5346;DHT22;2695;49.444;11.054;2022-11-20T02:02:39;2.60;99.90
5346;DHT22;2695;49.444;11.054;2022-11-20T02:05:23;2.70;99.90
5346;DHT22;2695;49.444;11.054;2022-11-20T02:07:52;2.70;99.90
5346;DHT22;2695;49.444;11.054;2022-11-20T02:10:22;2.70;99.90
5346;DHT22;2695;49.444;11.054;2022-11-20T02:12:50;2.80;99.90
5346;DHT22;2695;49.444;11.054;2022-11-20T02:15:38;2.80;99.90
5346;DHT22;2695;49.444;11.054;2022-11-20T02:18:06;2.70;99.90
5346;DHT22;2695;49.444;11.054;2022-11-20T02:20:36;2.60;99.90
5346;DHT22;2695;49.444;11.054;2022-11-20T02:23:08;2.60;99.90
5346;DHT22;2695;49.444;11.054;2022-11-20T02:25:42;2.60;99.90
5346;DHT22;2695;49.444;11.054;2022-11-20T02:28:11;2.70;99.90
5346;DHT22;2695;49.444;11.054;2022-11-20T02:30:40;2.70;99.90
5346;DHT22;2695;49.444;11.054;2022-11-20T02:33:08;2.70;99.90
5346;DHT22;2695;49.444;11.054;2022-11-20T02:35:42;2.70;99.90
5346;DHT22;2695;49.444;11.054;2022-11-20T02:38:11;3.00;99.90
5346;DHT22;2695;49.444;11.054;2022-11-20T02:40:42;2.80;99.90
5346;DHT22;2695;49.444;11.054;2022-11-20T02:43:10;2.80;99.90
5346;DHT22;2695;49.444;11.054;2022-11-20T02:45:42;2.90;99.90
5346;DHT22;2695;49.444;11.054;2022-11-20T02:48:10;2.80;99.90
5346;DHT22;2695;49.444;11.054;2022-11-20T02:50:39;2.90;99.90
5346;DHT22;2695;49.444;11.054;2022-11-20T02:53:07;2.90;99.90
5346;DHT22;2695;49.444;11.054;2022-11-20T02:55:36;2.90;99.90
5346;DHT22;2695;49.444;11.054;2022-11-20T02:58:05;3.00;99.90
5346;DHT22;2695;49.444;11.054;2022-11-20T03:00:33;2.90;99.90
5346;DHT22;2695;49.444;11.054;2022-11-20T03:03:02;3.00;99.90
5346;DHT22;2695;49.444;11.054;2022-11-20T03:05:30;3.00;99.90
5346;DHT22;2695;49.444;11.054;2022-11-20T03:07:59;3.00;99.90
5346;DHT22;2695;49.444;11.054;2022-11-20T03:10:27;3.00;99.90
5346;DHT22;2695;49.444;11.054;2022-11-20T03:12:56;3.00;99.90
5346;DHT22;2695;49.444;11.054;2022-11-20T03:15:25;3.00;99.90
5346;DHT22;2695;49.444;11.054;2022-11-20T03:17:54;3.00;99.90
5346;DHT22;2695;49.444;11.054;2022-11-20T03:20:22;3.10;99.90
5346;DHT22;2695;49.444;11.054;2022-11-20T03:22:51;3.10;99.90
5346;DHT22;2695;49.444;11.054;2022-11-20T03:25:21;3.00;99.90
5346;DHT22;2695;49.444;11.054;2022-11-20T03:27:49;2.90;99.90
5346;DHT22;2695;49.444;11.054;2022-11-20T03:30:17;2.90;99.90
5346;DHT22;2695;49.444;11.054;2022-11-20T03:32:47;2.90;99.90
5346;DHT22;2695;49.444;11.054;2022-11-20T03:35:17;2.90;99.90
5346;DHT22;2695;49.444;11.054;2022-11-20T03:37:48;2.80;99.90
5346;DHT22;2695;49.444;11.054;2022-11-20T03:40:22;2.80;99.90
5346;DHT22;2695;49.444;11.054;2022-11-20T03:42:50;2.80;99.90
5346;DHT22;2695;49.444;11.054;2022-11-20T03:45:19;2.90;99.90
5346;DHT22;2695;49.444;11.054;2022-11-20T03:47:48;2.90;99.90
5346;DHT22;2695;49.444;11.054;2022-11-20T03:50:25;2.80;99.90
5346;DHT22;2695;49.444;11.054;2022-11-20T03:52:54;2.80;99.90
5346;DHT22;2695;49.444;11.054;2022-11-20T03:55:23;2.80;99.90
5346;DHT22;2695;49.444;11.054;2022-11-20T03:57:51;2.80;99.90
5346;DHT22;2695;49.444;11.054;2022-11-20T04:00:25;2.80;99.90
5346;DHT22;2695;49.444;11.054;2022-11-20T04:02:58;2.70;99.90
5346;DHT22;2695;49.444;11.054;2022-11-20T04:05:26;2.80;99.90
5346;DHT22;2695;49.444;11.054;2022-11-20T04:07:55;2.80;99.90
5346;DHT22;2695;49.444;11.054;2022-11-20T04:10:25;2.80;99.90
5346;DHT22;2695;49.444;11.054;2022-11-20T04:12:53;2.90;99.90
5346;DHT22;2695;49.444;11.054;2022-11-20T04:15:21;2.90;99.90
5346;DHT22;2695;49.444;11.054;2022-11-20T04:17:49;2.90;99.90
5346;DHT22;2695;49.444;11.054;2022-11-20T04:20:21;2.90;99.90
5346;DHT22;2695;49.444;11.054;2022-11-20T04:22:52;2.70;99.90
5346;DHT22;2695;49.444;11.054;2022-11-20T04:25:20;2.80;99.90
5346;DHT22;2695;49.444;11.054;2022-11-20T04:27:48;2.80;99.90
5346;DHT22;2695;49.444;11.054;2022-11-20T04:30:16;2.80;99.90
5346;DHT22;2695;49.444;11.054;2022-11-20T04:32:44;2.80;99.90
5346;DHT22;2695;49.444;11.054;2022-11-20T04:35:13;2.80;99.90
5346;DHT22;2695;49.444;11.054;2022-11-20T04:37:42;2.80;99.90
5346;DHT22;2695;49.444;11.054;2022-11-20T04:40:11;2.70;99.90
5346;DHT22;2695;49.444;11.054;2022-11-20T04:42:39;2.70;99.90
5346;DHT22;2695;49.444;11.054;2022-11-20T04:45:08;2.60;99.90
5346;DHT22;2695;49.444;11.054;2022-11-20T04:47:36;2.60;99.90
5346;DHT22;2695;49.444;11.054;2022-11-20T04:50:05;2.50;99.90
5346;DHT22;2695;49.444;11.054;2022-11-20T04:52:33;2.60;99.90
5346;DHT22;2695;49.444;11.054;2022-11-20T04:55:03;2.70;99.90
5346;DHT22;2695;49.444;11.054;2022-11-20T04:57:32;2.60;99.90
5346;DHT22;2695;49.444;11.054;2022-11-20T05:00:00;2.70;99.90
5346;DHT22;2695;49.444;11.054;2022-11-20T05:02:28;2.60;99.90
5346;DHT22;2695;49.444;11.054;2022-11-20T05:04:58;2.60;99.90
5346;DHT22;2695;49.444;11.054;2022-11-20T05:07:26;2.60;99.90
5346;DHT22;2695;49.444;11.054;2022-11-20T05:09:54;2.60;99.90
5346;DHT22;2695;49.444;11.054;2022-11-20T05:12:23;2.60;99.90
5346;DHT22;2695;49.444;11.054;2022-11-20T05:14:51;2.60;99.90
5346;DHT22;2695;49.444;11.054;2022-11-20T05:17:22;2.50;99.90
5346;DHT22;2695;49.444;11.054;2022-11-20T05:19:50;2.50;99.90
5346;DHT22;2695;49.444;11.054;2022-11-20T05:22:19;2.50;99.90
5346;DHT22;2695;49.444;11.054;2022-11-20T05:24:47;2.50;99.90
5346;DHT22;2695;49.444;11.054;2022-11-20T05:27:15;2.60;99.90
5346;DHT22;2695;49.444;11.054;2022-11-20T05:29:44;2.70;99.90
5346;DHT22;2695;49.444;11.054;2022-11-20T05:32:12;2.60;99.90
5346;DHT22;2695;49.444;11.054;2022-11-20T05:34:41;2.60;99.90
5346;DHT22;2695;49.444;11.054;2022-11-20T05:37:09;2.70;99.90
5346;DHT22;2695;49.444;11.054;2022-11-20T05:39:37;2.50;99.90
5346;DHT22;2695;49.444;11.054;2022-11-20T05:42:05;2.50;99.90
5346;DHT22;2695;49.444;11.054;2022-11-20T05:44:51;2.50;99.90
5346;DHT22;2695;49.444;11.054;2022-11-20T05:47:19;2.50;99.90
5346;DHT22;2695;49.444;11.054;2022-11-20T05:49:47;2.60;99.90
5346;DHT22;2695;49.444;11.054;2022-11-20T05:52:15;2.60;99.90
5346;DHT22;2695;49.444;11.054;2022-11-20T05:54:43;2.60;99.90
5346;DHT22;2695;49.444;11.054;2022-11-20T05:57:11;2.60;99.90
5346;DHT22;2695;49.444;11.054;2022-11-20T05:59:40;2.60;99.90
5346;DHT22;2695;49.444;11.054;2022-11-20T06:02:09;2.60;99.90
5346;DHT22;2695;49.444;11.054;2022-11-20T06:04:38;2.60;99.90
5346;DHT22;2695;49.444;11.054;2022-11-20T06:07:06;2.60;99.90
5346;DHT22;2695;49.444;11.054;2022-11-20T06:09:34;2.60;99.90
5346;DHT22;2695;49.444;11.054;2022-11-20T06:12:02;2.70;99.90
5346;DHT22;2695;49.444;11.054;2022-11-20T06:14:31;2.60;99.90
5346;DHT22;2695;49.444;11.054;2022-11-20T06:16:58;2.70;99.90
5346;DHT22;2695;49.444;11.054;2022-11-20T06:19:28;2.70;99.90
5346;DHT22;2695;49.444;11.054;2022-11-20T06:21:56;2.70;99.90
5346;DHT22;2695;49.444;11.054;2022-11-20T06:24:24;2.70;99.90
5346;DHT22;2695;49.444;11.054;2022-11-20T06:26:53;2.70;99.90
5346;DHT22;2695;49.444;11.054;2022-11-20T06:29:21;2.70;99.90
5346;DHT22;2695;49.444;11.054;2022-11-20T06:31:49;2.70;99.90
5346;DHT22;2695;49.444;11.054;2022-11-20T06:34:17;2.70;99.90
5346;DHT22;2695;49.444;11.054;2022-11-20T06:36:47;2.70;99.90
5346;DHT22;2695;49.444;11.054;2022-11-20T06:39:21;2.70;99.90
5346;DHT22;2695;49.444;11.054;2022-11-20T06:41:50;2.70;99.90
5346;DHT22;2695;49.444;11.054;2022-11-20T06:44:27;2.80;99.90
5346;DHT22;2695;49.444;11.054;2022-11-20T06:46:56;2.80;99.90
5346;DHT22;2695;49.444;11.054;2022-11-20T06:49:28;2.80;99.90
5346;DHT22;2695;49.444;11.054;2022-11-20T06:51:59;2.90;99.90
5346;DHT22;2695;49.444;11.054;2022-11-20T06:54:32;2.90;99.90
5346;DHT22;2695;49.444;11.054;2022-11-20T06:57:04;2.80;99.90
5346;DHT22;2695;49.444;11.054;2022-11-20T06:59:33;2.80;99.90
5346;DHT22;2695;49.444;11.054;2022-11-20T07:02:01;2.80;99.90
5346;DHT22;2695;49.444;11.054;2022-11-20T07:04:30;2.90;99.90
5346;DHT22;2695;49.444;11.054;2022-11-20T07:07:05;3.00;99.90
5346;DHT22;2695;49.444;11.054;2022-11-20T07:10:05;3.00;99.90
5346;DHT22;2695;49.444;11.054;2022-11-20T07:12:35;3.00;99.90
5346;DHT22;2695;49.444;11.054;2022-11-20T07:15:03;3.00;99.90
5346;DHT22;2695;49.444;11.054;2022-11-20T07:17:32;3.00;99.90
5346;DHT22;2695;49.444;11.054;2022-11-20T07:20:00;3.00;99.90
5346;DHT22;2695;49.444;11.054;2022-11-20T07:22:29;3.00;99.90
5346;DHT22;2695;49.444;11.054;2022-11-20T07:24:57;3.00;99.90
5346;DHT22;2695;49.444;11.054;2022-11-20T07:27:32;3.00;99.90
5346;DHT22;2695;49.444;11.054;2022-11-20T07:30:02;3.00;99.90
5346;DHT22;2695;49.444;11.054;2022-11-20T07:32:36;3.00;99.90
5346;DHT22;2695;49.444;11.054;2022-11-20T07:35:22;3.00;99.90
5346;DHT22;2695;49.444;11.054;2022-11-20T07:41:00;3.10;99.90
5346;DHT22;2695;49.444;11.054;2022-11-20T07:43:48;3.20;99.90
5346;DHT22;2695;49.444;11.054;2022-11-20T07:46:30;3.30;99.90
5346;DHT22;2695;49.444;11.054;2022-11-20T07:48:58;3.30;99.90
5346;DHT22;2695;49.444;11.054;2022-11-20T07:51:26;3.40;99.90
5346;DHT22;2695;49.444;11.054;2022-11-20T07:54:01;3.50;99.90
5346;DHT22;2695;49.444;11.054;2022-11-20T07:56:32;3.50;99.90
5346;DHT22;2695;49.444;11.054;2022-11-20T07:59:04;3.50;99.90
5346;DHT22;2695;49.444;11.054;2022-11-20T08:01:32;3.50;99.90
5346;DHT22;2695;49.444;11.054;2022-11-20T08:04:01;3.60;99.90
5346;DHT22;2695;49.444;11.054;2022-11-20T08:06:34;3.70;99.90
5346;DHT22;2695;49.444;11.054;2022-11-20T08:09:04;3.70;99.90
5346;DHT22;2695;49.444;11.054;2022-11-20T08:11:33;3.80;99.90
5346;DHT22;2695;49.444;11.054;2022-11-20T08:14:19;3.80;99.90
5346;DHT22;2695;49.444;11.054;2022-11-20T08:16:49;3.70;99.90
5346;DHT22;2695;49.444;11.054;2022-11-20T08:19:18;3.70;99.90
5346;DHT22;2695;49.444;11.054;2022-11-20T08:21:47;3.80;99.90
5346;DHT22;2695;49.444;11.054;2022-11-20T08:24:22;3.80;99.90
5346;DHT22;2695;49.444;11.054;2022-11-20T08:26:56;3.80;99.90
5346;DHT22;2695;49.444;11.054;2022-11-20T08:29:25;3.90;99.90
5346;DHT22;2695;49.444;11.054;2022-11-20T08:31:55;3.90;99.90
5346;DHT22;2695;49.444;11.054;2022-11-20T08:34:25;4.00;99.90
5346;DHT22;2695;49.444;11.054;2022-11-20T08:36:53;4.00;99.90
5346;DHT22;2695;49.444;11.054;2022-11-20T08:39:26;4.00;99.90
5346;DHT22;2695;49.444;11.054;2022-11-20T08:41:57;4.10;99.90
5346;DHT22;2695;49.444;11.054;2022-11-20T08:44:28;4.20;99.90
5346;DHT22;2695;49.444;11.054;2022-11-20T08:46:58;4.20;99.90
5346;DHT22;2695;49.444;11.054;2022-11-20T08:49:27;4.30;99.90
5346;DHT22;2695;49.444;11.054;2022-11-20T08:51:56;4.30;99.90
5346;DHT22;2695;49.444;11.054;2022-11-20T08:54:26;4.30;99.90
5346;DHT22;2695;49.444;11.054;2022-11-20T08:56:54;4.40;99.90
5346;DHT22;2695;49.444;11.054;2022-11-20T08:59:22;4.30;99.90
5346;DHT22;2695;49.444;11.054;2022-11-20T09:02:11;4.20;99.90
5346;DHT22;2695;49.444;11.054;2022-11-20T09:04:52;4.20;99.90
5346;DHT22;2695;49.444;11.054;2022-11-20T09:07:30;4.20;99.90
5346;DHT22;2695;49.444;11.054;2022-11-20T09:10:01;4.10;99.90
5346;DHT22;2695;49.444;11.054;2022-11-20T09:12:55;3.90;99.90
5346;DHT22;2695;49.444;11.054;2022-11-20T09:15:24;4.00;99.90
5346;DHT22;2695;49.444;11.054;2022-11-20T09:17:53;4.00;99.90
5346;DHT22;2695;49.444;11.054;2022-11-20T09:20:21;4.00;99.90
5346;DHT22;2695;49.444;11.054;2022-11-20T09:22:50;4.10;99.90
5346;DHT22;2695;49.444;11.054;2022-11-20T09:25:20;4.10;99.90
5346;DHT22;2695;49.444;11.054;2022-11-20T09:27:54;4.20;99.90
5346;DHT22;2695;49.444;11.054;2022-11-20T09:30:22;4.30;99.90
5346;DHT22;2695;49.444;11.054;2022-11-20T09:32:50;4.30;99.90
5346;DHT22;2695;49.444;11.054;2022-11-20T09:35:19;4.40;99.90
5346;DHT22;2695;49.444;11.054;2022-11-20T09:37:47;4.40;99.90
5346;DHT22;2695;49.444;11.054;2022-11-20T09:40:21;4.40;99.90
5346;DHT22;2695;49.444;11.054;2022-11-20T09:42:56;4.60;99.90
5346;DHT22;2695;49.444;11.054;2022-11-20T09:45:38;4.60;99.90
5346;DHT22;2695;49.444;11.054;2022-11-20T09:48:27;4.70;99.90
5346;DHT22;2695;49.444;11.054;2022-11-20T09:51:03;4.70;99.90
5346;DHT22;2695;49.444;11.054;2022-11-20T09:53:41;4.80;99.90
5346;DHT22;2695;49.444;11.054;2022-11-20T09:56:14;4.80;99.90
5346;DHT22;2695;49.444;11.054;2022-11-20T09:58:59;4.80;99.90
5346;DHT22;2695;49.444;11.054;2022-11-20T10:01:51;4.70;99.90
5346;DHT22;2695;49.444;11.054;2022-11-20T10:04:26;4.90;99.90
5346;DHT22;2695;49.444;11.054;2022-11-20T10:07:06;5.00;99.90
5346;DHT22;2695;49.444;11.054;2022-11-20T10:09:59;5.00;99.90
5346;DHT22;2695;49.444;11.054;2022-11-20T10:12:54;4.90;99.90
5346;DHT22;2695;49.444;11.054;2022-11-20T10:15:59;5.00;99.90
5346;DHT22;2695;49.444;11.054;2022-11-20T10:19:39;5.20;99.90
5346;DHT22;2695;49.444;11.054;2022-11-20T10:22:04;5.10;99.90
5346;DHT22;2695;49.444;11.054;2022-11-20T10:24:48;5.40;99.90
5346;DHT22;2695;49.444;11.054;2022-11-20T10:27:53;5.40;99.90
5346;DHT22;2695;49.444;11.054;2022-11-20T10:30:45;5.40;99.90
5346;DHT22;2695;49.444;11.054;2022-11-20T10:33:22;5.40;99.90
5346;DHT22;2695;49.444;11.054;2022-11-20T10:36:05;5.30;99.90
5346;DHT22;2695;49.444;11.054;2022-11-20T10:38:42;5.30;99.90
5346;DHT22;2695;49.444;11.054;2022-11-20T10:41:20;5.40;99.90
5346;DHT22;2695;49.444;11.054;2022-11-20T10:44:00;5.40;99.90
5346;DHT22;2695;49.444;11.054;2022-11-20T10:46:37;5.50;99.90
5346;DHT22;2695;49.444;11.054;2022-11-20T10:52:06;5.60;99.90
5346;DHT22;2695;49.444;11.054;2022-11-20T10:54:42;5.70;99.90
5346;DHT22;2695;49.444;11.054;2022-11-20T10:57:20;5.80;99.90
5346;DHT22;2695;49.444;11.054;2022-11-20T11:00:00;5.80;99.90
5346;DHT22;2695;49.444;11.054;2022-11-20T11:02:33;5.90;99.90
5346;DHT22;2695;49.444;11.054;2022-11-20T11:05:17;6.00;99.90
5346;DHT22;2695;49.444;11.054;2022-11-20T11:07:50;6.00;99.90
5346;DHT22;2695;49.444;11.054;2022-11-20T11:10:21;6.10;99.90
5346;DHT22;2695;49.444;11.054;2022-11-20T11:12:51;6.10;99.90
5346;DHT22;2695;49.444;11.054;2022-11-20T11:15:29;6.20;99.90
5346;DHT22;2695;49.444;11.054;2022-11-20T11:18:01;6.20;99.90
5346;DHT22;2695;49.444;11.054;2022-11-20T11:20:31;6.20;99.90
5346;DHT22;2695;49.444;11.054;2022-11-20T11:23:00;6.30;99.90
5346;DHT22;2695;49.444;11.054;2022-11-20T11:25:30;6.40;99.90
5346;DHT22;2695;49.444;11.054;2022-11-20T11:28:02;6.40;99.90
5346;DHT22;2695;49.444;11.054;2022-11-20T11:30:43;6.40;99.90
5346;DHT22;2695;49.444;11.054;2022-11-20T11:33:21;6.00;99.90
5346;DHT22;2695;49.444;11.054;2022-11-20T11:35:55;5.70;99.90
5346;DHT22;2695;49.444;11.054;2022-11-20T11:38:31;5.50;99.90
5346;DHT22;2695;49.444;11.054;2022-11-20T11:41:02;5.40;99.90
5346;DHT22;2695;49.444;11.054;2022-11-20T11:43:33;5.30;99.90
5346;DHT22;2695;49.444;11.054;2022-11-20T11:46:29;5.30;99.90
5346;DHT22;2695;49.444;11.054;2022-11-20T11:48:59;5.50;99.90
5346;DHT22;2695;49.444;11.054;2022-11-20T11:51:34;5.50;99.90
5346;DHT22;2695;49.444;11.054;2022-11-20T11:54:13;5.70;99.90
5346;DHT22;2695;49.444;11.054;2022-11-20T11:56:45;5.70;99.90
5346;DHT22;2695;49.444;11.054;2022-11-20T11:59:18;5.70;99.90
5346;DHT22;2695;49.444;11.054;2022-11-20T12:01:57;5.80;99.90
5346;DHT22;2695;49.444;11.054;2022-11-20T12:04:40;5.80;99.90
5346;DHT22;2695;49.444;11.054;2022-11-20T12:07:15;5.80;99.90
5346;DHT22;2695;49.444;11.054;2022-11-20T12:10:19;5.90;99.90
5346;DHT22;2695;49.444;11.054;2022-11-20T12:12:53;6.00;99.90
5346;DHT22;2695;49.444;11.054;2022-11-20T12:15:29;6.10;99.90
5346;DHT22;2695;49.444;11.054;2022-11-20T12:17:59;6.10;99.90
5346;DHT22;2695;49.444;11.054;2022-11-20T12:20:32;6.10;99.90
5346;DHT22;2695;49.444;11.054;2022-11-20T12:23:07;6.10;99.90
5346;DHT22;2695;49.444;11.054;2022-11-20T12:25:39;6.10;99.90
5346;DHT22;2695;49.444;11.054;2022-11-20T12:31:29;5.90;99.90
5346;DHT22;2695;49.444;11.054;2022-11-20T12:34:16;5.80;99.90
5346;DHT22;2695;49.444;11.054;2022-11-20T12:36:58;5.70;99.90
5346;DHT22;2695;49.444;11.054;2022-11-20T12:39:37;5.80;99.90
5346;DHT22;2695;49.444;11.054;2022-11-20T12:42:30;5.90;99.90
5346;DHT22;2695;49.444;11.054;2022-11-20T12:48:34;6.20;99.90
5346;DHT22;2695;49.444;11.054;2022-11-20T12:51:36;6.40;99.90
5346;DHT22;2695;49.444;11.054;2022-11-20T12:57:13;6.50;99.90
5346;DHT22;2695;49.444;11.054;2022-11-20T13:00:02;6.50;99.90
5346;DHT22;2695;49.444;11.054;2022-11-20T13:02:43;6.50;99.90
5346;DHT22;2695;49.444;11.054;2022-11-20T13:05:26;6.50;99.90
5346;DHT22;2695;49.444;11.054;2022-11-20T13:07:58;6.30;99.90
5346;DHT22;2695;49.444;11.054;2022-11-20T13:10:47;6.30;99.90
5346;DHT22;2695;49.444;11.054;2022-11-20T13:13:23;6.20;99.90
5346;DHT22;2695;49.444;11.054;2022-11-20T13:15:57;6.00;99.90
5346;DHT22;2695;49.444;11.054;2022-11-20T13:18:26;6.00;99.90
5346;DHT22;2695;49.444;11.054;2022-11-20T13:20:56;5.90;99.90
5346;DHT22;2695;49.444;11.054;2022-11-20T13:23:27;5.90;99.90
5346;DHT22;2695;49.444;11.054;2022-11-20T13:26:05;5.80;99.90
5346;DHT22;2695;49.444;11.054;2022-11-20T13:28:36;5.80;99.90
5346;DHT22;2695;49.444;11.054;2022-11-20T13:31:29;5.80;99.90
5346;DHT22;2695;49.444;11.054;2022-11-20T13:33:59;5.70;99.90
5346;DHT22;2695;49.444;11.054;2022-11-20T13:36:30;5.70;99.90
5346;DHT22;2695;49.444;11.054;2022-11-20T13:39:01;5.70;99.90
5346;DHT22;2695;49.444;11.054;2022-11-20T13:41:32;5.60;99.90
5346;DHT22;2695;49.444;11.054;2022-11-20T13:44:11;5.60;99.90
5346;DHT22;2695;49.444;11.054;2022-11-20T13:46:42;5.60;99.90
5346;DHT22;2695;49.444;11.054;2022-11-20T13:49:18;5.60;99.90
5346;DHT22;2695;49.444;11.054;2022-11-20T13:51:51;5.60;99.90
5346;DHT22;2695;49.444;11.054;2022-11-20T13:57:46;5.50;99.90
5346;DHT22;2695;49.444;11.054;2022-11-20T14:00:23;5.50;99.90
5346;DHT22;2695;49.444;11.054;2022-11-20T14:03:02;5.50;99.90
5346;DHT22;2695;49.444;11.054;2022-11-20T14:05:49;5.40;99.90
5346;DHT22;2695;49.444;11.054;2022-11-20T14:08:27;5.40;99.90
5346;DHT22;2695;49.444;11.054;2022-11-20T14:11:12;5.40;99.90
5346;DHT22;2695;49.444;11.054;2022-11-20T14:13:53;5.40;99.90
5346;DHT22;2695;49.444;11.054;2022-11-20T14:16:22;5.40;99.90
5346;DHT22;2695;49.444;11.054;2022-11-20T14:18:52;5.50;99.90
5346;DHT22;2695;49.444;11.054;2022-11-20T14:21:23;5.50;99.90
5346;DHT22;2695;49.444;11.054;2022-11-20T14:24:04;5.50;99.90
5346;DHT22;2695;49.444;11.054;2022-11-20T14:26:42;5.60;99.90
5346;DHT22;2695;49.444;11.054;2022-11-20T14:29:12;5.50;99.90
5346;DHT22;2695;49.444;11.054;2022-11-20T14:31:42;5.50;99.90
5346;DHT22;2695;49.444;11.054;2022-11-20T14:34:20;5.50;99.90
5346;DHT22;2695;49.444;11.054;2022-11-20T14:36:53;5.50;99.90
5346;DHT22;2695;49.444;11.054;2022-11-20T14:39:29;5.50;99.90
5346;DHT22;2695;49.444;11.054;2022-11-20T14:42:00;5.50;99.90
5346;DHT22;2695;49.444;11.054;2022-11-20T14:44:30;5.50;99.90
5346;DHT22;2695;49.444;11.054;2022-11-20T14:47:05;5.50;99.90
5346;DHT22;2695;49.444;11.054;2022-11-20T14:49:33;5.50;99.90
5346;DHT22;2695;49.444;11.054;2022-11-20T14:52:09;5.50;99.90
5346;DHT22;2695;49.444;11.054;2022-11-20T14:54:44;5.50;99.90
5346;DHT22;2695;49.444;11.054;2022-11-20T14:57:27;5.50;99.90
5346;DHT22;2695;49.444;11.054;2022-11-20T15:00:19;5.40;99.90
5346;DHT22;2695;49.444;11.054;2022-11-20T15:02:50;5.40;99.90
5346;DHT22;2695;49.444;11.054;2022-11-20T15:05:22;5.40;99.90
5346;DHT22;2695;49.444;11.054;2022-11-20T15:08:03;5.40;99.90
5346;DHT22;2695;49.444;11.054;2022-11-20T15:10:31;5.40;99.90
5346;DHT22;2695;49.444;11.054;2022-11-20T15:13:05;5.30;99.90
5346;DHT22;2695;49.444;11.054;2022-11-20T15:15:42;5.40;99.90
5346;DHT22;2695;49.444;11.054;2022-11-20T15:18:13;5.40;99.90
5346;DHT22;2695;49.444;11.054;2022-11-20T15:20:42;5.40;99.90
5346;DHT22;2695;49.444;11.054;2022-11-20T15:23:12;5.40;99.90
5346;DHT22;2695;49.444;11.054;2022-11-20T15:25:40;5.30;99.90
5346;DHT22;2695;49.444;11.054;2022-11-20T15:28:16;5.30;99.90
5346;DHT22;2695;49.444;11.054;2022-11-20T15:30:47;5.30;99.90
5346;DHT22;2695;49.444;11.054;2022-11-20T15:33:16;5.30;99.90
5346;DHT22;2695;49.444;11.054;2022-11-20T15:35:45;5.30;99.90
5346;DHT22;2695;49.444;11.054;2022-11-20T15:38:13;5.40;99.90
5346;DHT22;2695;49.444;11.054;2022-11-20T15:40:41;5.40;99.90
5346;DHT22;2695;49.444;11.054;2022-11-20T15:43:12;5.40;99.90
5346;DHT22;2695;49.444;11.054;2022-11-20T15:45:42;5.40;99.90
5346;DHT22;2695;49.444;11.054;2022-11-20T15:48:14;5.50;99.90
5346;DHT22;2695;49.444;11.054;2022-11-20T15:50:51;5.50;99.90
5346;DHT22;2695;49.444;11.054;2022-11-20T15:53:20;5.40;99.90
5346;DHT22;2695;49.444;11.054;2022-11-20T15:55:49;5.40;99.90
5346;DHT22;2695;49.444;11.054;2022-11-20T15:58:18;5.40;99.90
5346;DHT22;2695;49.444;11.054;2022-11-20T16:00:47;5.40;99.90
5346;DHT22;2695;49.444;11.054;2022-11-20T16:03:16;5.40;99.90
5346;DHT22;2695;49.444;11.054;2022-11-20T16:05:44;5.30;99.90
5346;DHT22;2695;49.444;11.054;2022-11-20T16:08:13;5.40;99.90
5346;DHT22;2695;49.444;11.054;2022-11-20T16:10:42;5.50;99.90
5346;DHT22;2695;49.444;11.054;2022-11-20T16:13:12;5.50;99.90
5346;DHT22;2695;49.444;11.054;2022-11-20T16:16:02;5.40;99.90
5346;DHT22;2695;49.444;11.054;2022-11-20T16:18:32;5.40;99.90
5346;DHT22;2695;49.444;11.054;2022-11-20T16:21:01;5.40;99.90
5346;DHT22;2695;49.444;11.054;2022-11-20T16:23:29;5.30;99.90
5346;DHT22;2695;49.444;11.054;2022-11-20T16:25:58;5.30;99.90
5346;DHT22;2695;49.444;11.054;2022-11-20T16:28:26;5.30;99.90
5346;DHT22;2695;49.444;11.054;2022-11-20T16:30:55;5.20;99.90
5346;DHT22;2695;49.444;11.054;2022-11-20T16:33:25;5.20;99.90
5346;DHT22;2695;49.444;11.054;2022-11-20T16:35:55;5.20;99.90
5346;DHT22;2695;49.444;11.054;2022-11-20T16:38:25;5.20;99.90
5346;DHT22;2695;49.444;11.054;2022-11-20T16:41:00;5.10;99.90
5346;DHT22;2695;49.444;11.054;2022-11-20T16:43:28;5.10;99.90
5346;DHT22;2695;49.444;11.054;2022-11-20T16:45:56;5.10;99.90
5346;DHT22;2695;49.444;11.054;2022-11-20T16:48:26;5.10;99.90
5346;DHT22;2695;49.444;11.054;2022-11-20T16:50:54;5.10;99.90
5346;DHT22;2695;49.444;11.054;2022-11-20T16:53:22;5.20;99.90
5346;DHT22;2695;49.444;11.054;2022-11-20T16:58:35;5.20;99.90
5346;DHT22;2695;49.444;11.054;2022-11-20T17:01:07;5.20;99.90